Time;durP1;ratioP1;P1;durP2;ratioP2;P2;SDS_P1;SDS_P2;PMS_P1;PMS_P2;Temp;Humidity;BMP_temperature;BMP_pressure;BME280_temperature;BME280_humidity;BME280_pressure;Samples;Min_cycle;Max_cycle;Signal;HPM_P1;HPM_P2
2023/08/21 00:01:56;;;;;;;53.97;5.20;;;;;;;26.60;66.98;100020.31;7308548;19;129149;-41
2023/08/21 00:04:21;;;;;;;68.87;5.93;;;;;;;26.62;67.03;100020.16;7309291;19;129222;-38
2023/08/21 00:06:46;;;;;;;60.23;5.50;;;;;;;26.60;66.80;100020.31;7309605;19;129205;-36
2023/08/21 00:09:12;;;;;;;46.63;4.80;;;;;;;26.60;66.61;100017.69;7310317;19;130024;-39
2023/08/21 00:11:37;;;;;;;92.50;7.17;;;;;;;26.61;66.74;100021.94;7306531;19;128847;-38
2023/08/21 00:14:03;;;;;;;65.50;5.87;;;;;;;26.55;66.98;100016.50;7308507;19;129723;-38
2023/08/21 00:16:29;;;;;;;77.27;6.43;;;;;;;26.62;66.55;100023.63;7306886;19;129446;-36
2023/08/21 00:18:54;;;;;;;59.63;5.63;;;;;;;26.61;66.93;100016.69;7309541;19;130421;-39
2023/08/21 00:21:20;;;;;;;53.30;5.43;;;;;;;26.61;66.43;100005.31;7306428;19;128921;-38
2023/08/21 00:23:46;;;;;;;55.65;5.32;;;;;;;26.60;67.08;100001.84;7308610;19;129454;-40
2023/08/21 00:26:12;;;;;;;65.63;5.47;;;;;;;26.54;66.44;99989.28;7309633;19;130317;-39
2023/08/21 00:28:38;;;;;;;56.92;5.28;;;;;;;26.61;66.58;100000.84;7309477;19;130414;-39
2023/08/21 00:31:04;;;;;;;63.00;5.57;;;;;;;26.60;66.98;99995.75;7307791;19;129456;-36
2023/08/21 00:33:33;;;;;;;68.28;6.30;;;;;;;26.59;66.81;100002.03;7307957;19;129073;-41
2023/08/21 00:35:58;;;;;;;45.53;4.95;;;;;;;26.60;66.59;99998.38;7309535;19;129235;-39
2023/08/21 00:38:24;;;;;;;57.37;5.63;;;;;;;26.59;66.89;99981.72;7309197;19;130332;-43
2023/08/21 00:40:50;;;;;;;35.37;4.47;;;;;;;26.58;66.33;99980.09;7308267;19;129356;-39
2023/08/21 00:43:15;;;;;;;87.47;6.57;;;;;;;26.59;66.86;99980.91;7308406;19;129190;-38
2023/08/21 00:45:43;;;;;;;57.13;5.33;;;;;;;26.59;67.11;99979.09;7310028;19;129988;-38
2023/08/21 00:48:11;;;;;;;69.20;5.88;;;;;;;26.60;66.92;99975.47;7308883;19;130279;-38
2023/08/21 00:50:37;;;;;;;48.78;5.13;;;;;;;26.61;67.20;99977.13;7307872;19;129129;-39
2023/08/21 00:53:05;;;;;;;75.00;6.63;;;;;;;26.59;66.90;99981.72;7307733;19;129760;-39
2023/08/21 00:55:31;;;;;;;53.83;5.20;;;;;;;26.59;66.98;99975.66;7308409;19;130257;-40
2023/08/21 00:57:56;;;;;;;62.60;5.43;;;;;;;26.58;67.03;99980.09;7306180;19;129684;-37
2023/08/21 01:00:23;;;;;;;70.13;6.40;;;;;;;26.60;66.81;99985.19;7306449;19;129438;-36
2023/08/21 01:02:49;;;;;;;66.40;6.07;;;;;;;26.50;66.88;99977.44;7307534;19;129826;-40
2023/08/21 01:05:14;;;;;;;71.03;5.90;;;;;;;26.58;66.64;99990.63;7308573;19;129094;-38
2023/08/21 01:08:05;;;;;;;43.97;5.00;;;;;;;26.57;68.34;99978.44;7307605;19;129209;-37
2023/08/21 01:10:50;;;;;;;56.78;5.38;;;;;;;26.58;68.39;99980.09;7306373;19;129866;-38
2023/08/21 01:13:34;;;;;;;64.65;5.97;;;;;;;26.58;68.30;99982.72;7304740;19;129425;-37
2023/08/21 01:16:00;;;;;;;65.63;5.97;;;;;;;26.57;66.74;99998.72;7307480;19;130187;-37
2023/08/21 01:18:28;;;;;;;64.25;5.88;;;;;;;26.57;67.07;99999.53;7307247;19;129135;-40
2023/08/21 01:20:54;;;;;;;68.40;5.80;;;;;;;26.58;66.42;99993.28;7306107;19;128907;-39
2023/08/21 01:23:35;;;;;;;59.72;5.60;;;;;;;26.57;67.88;99989.00;7307072;19;128868;-39
2023/08/21 01:26:02;;;;;;;59.28;5.38;;;;;;;26.57;66.69;99994.28;7311353;19;130496;-39
2023/08/21 01:28:28;;;;;;;66.38;5.57;;;;;;;26.57;66.65;99999.53;7314593;19;129826;-39
2023/08/21 01:31:34;;;;;;;64.10;5.88;;;;;;;26.57;68.31;99999.53;7313594;19;129489;-39
2023/08/21 01:34:04;;;;;;;67.65;5.90;;;;;;;26.55;66.77;99998.88;7312970;19;128957;-38
2023/08/21 01:36:30;;;;;;;81.03;6.60;;;;;;;26.57;66.52;100004.81;7313779;19;129301;-39
2023/08/21 01:38:57;;;;;;;77.32;6.18;;;;;;;26.58;66.63;100005.63;7315066;19;129596;-38
2023/08/21 01:41:25;;;;;;;56.58;5.63;;;;;;;26.56;66.84;99992.59;7312676;19;129554;-40
2023/08/21 01:43:51;;;;;;;51.20;5.05;;;;;;;26.54;67.14;99984.03;7313568;19;129965;-39
2023/08/21 01:46:16;;;;;;;92.53;7.27;;;;;;;26.57;66.58;99970.53;7313435;19;130751;-39
2023/08/21 01:48:42;;;;;;;58.20;5.80;;;;;;;26.56;66.72;99976.78;7314264;19;130362;-38
2023/08/21 01:51:07;;;;;;;45.50;5.67;;;;;;;26.55;67.07;99990.97;7312230;19;129151;-37
2023/08/21 01:53:33;;;;;;;61.80;5.57;;;;;;;26.58;66.59;99990.63;7312660;19;128996;-39
2023/08/21 01:55:58;;;;;;;67.73;6.57;;;;;;;26.55;67.19;99975.13;7313174;19;131010;-39
2023/08/21 01:58:23;;;;;;;33.97;4.50;;;;;;;26.46;66.70;99955.00;7313706;19;129526;-38
2023/08/21 02:00:49;;;;;;;63.67;6.30;;;;;;;26.55;67.11;99977.78;7312022;19;129379;-39
2023/08/21 02:03:14;;;;;;;64.57;5.83;;;;;;;26.55;66.58;99980.41;7312695;19;129309;-38
2023/08/21 02:05:40;;;;;;;71.50;6.47;;;;;;;26.55;66.50;99977.78;7313556;19;129265;-37
2023/08/21 02:08:09;;;;;;;60.42;6.10;;;;;;;26.56;67.07;99987.31;7313549;19;130381;-36
2023/08/21 02:10:34;;;;;;;62.85;6.03;;;;;;;26.54;66.17;99986.66;7311843;19;129362;-39
2023/08/21 02:12:59;;;;;;;52.33;5.53;;;;;;;26.54;66.63;99991.13;7312380;19;129665;-37
2023/08/21 02:15:25;;;;;;;91.73;7.23;;;;;;;26.55;66.58;99984.84;7311516;19;129064;-38
2023/08/21 02:17:50;;;;;;;42.43;5.00;;;;;;;26.55;66.85;99985.69;7310820;19;129772;-37
2023/08/21 02:20:15;;;;;;;46.00;5.27;;;;;;;26.55;67.02;99979.56;7312103;19;129610;-38
2023/08/21 02:22:41;;;;;;;62.63;6.10;;;;;;;26.55;66.44;99990.97;7312122;19;129224;-38
2023/08/21 02:25:07;;;;;;;72.93;6.47;;;;;;;26.57;66.47;99981.09;7313235;19;129220;-39
2023/08/21 02:27:32;;;;;;;61.80;5.73;;;;;;;26.55;66.63;99977.78;7312891;19;131119;-35
2023/08/21 02:29:57;;;;;;;63.73;6.27;;;;;;;26.55;66.58;99969.03;7311829;19;128831;-36
2023/08/21 02:32:23;;;;;;;109.57;8.97;;;;;;;26.56;66.77;99973.34;7311928;19;128876;-37
2023/08/21 02:34:48;;;;;;;72.80;6.63;;;;;;;26.56;66.11;99976.78;7312678;19;129078;-38
2023/08/21 02:37:13;;;;;;;76.77;6.43;;;;;;;26.55;66.64;99972.50;7311367;19;129615;-39
2023/08/21 02:39:39;;;;;;;80.60;6.57;;;;;;;26.54;66.42;99972.66;7311723;19;129200;-38
2023/08/21 02:42:04;;;;;;;96.03;7.27;;;;;;;26.54;66.85;99976.09;7311176;19;129429;-39
2023/08/21 02:44:29;;;;;;;67.13;6.10;;;;;;;26.56;66.50;99987.31;7312149;19;130434;-41
2023/08/21 02:46:55;;;;;;;53.40;5.17;;;;;;;26.54;66.64;99978.75;7312354;19;129239;-36
2023/08/21 02:49:20;;;;;;;42.70;5.40;;;;;;;26.55;66.22;99977.78;7311376;19;129398;-37
2023/08/21 02:51:45;;;;;;;70.97;6.50;;;;;;;26.53;66.78;99984.19;7309334;19;129326;-38
2023/08/21 02:54:11;;;;;;;61.87;5.73;;;;;;;26.55;66.39;99985.69;7311495;19;129822;-38
2023/08/21 02:56:36;;;;;;;51.70;5.33;;;;;;;26.53;66.04;99971.00;7311458;19;129654;-40
2023/08/21 02:59:02;;;;;;;43.23;4.73;;;;;;;26.52;66.53;99970.19;7310914;19;128889;-37
2023/08/21 03:01:27;;;;;;;83.80;6.83;;;;;;;26.53;66.29;99971.84;7309352;19;129506;-39
2023/08/21 03:03:52;;;;;;;42.87;4.57;;;;;;;26.48;66.44;99970.66;7310882;19;129021;-39
2023/08/21 03:06:18;;;;;;;57.87;5.57;;;;;;;26.54;66.20;99975.31;7310488;19;130351;-39
2023/08/21 03:08:43;;;;;;;51.27;5.27;;;;;;;26.53;66.80;99984.19;7312185;19;129348;-43
2023/08/21 03:11:09;;;;;;;68.43;6.20;;;;;;;26.52;66.13;99986.03;7309520;19;128709;-38
2023/08/21 03:13:35;;;;;;;47.27;5.17;;;;;;;26.53;66.09;99997.38;7311076;19;130588;-37
2023/08/21 03:16:00;;;;;;;69.90;6.60;;;;;;;26.54;66.72;99993.75;7311749;19;130412;-36
2023/08/21 03:18:30;;;;;;;88.93;7.47;;;;;;;26.53;67.24;99992.94;7308415;19;129763;-37
2023/08/21 03:20:56;;;;;;;55.33;5.55;;;;;;;26.55;66.36;99992.75;7310411;19;128935;-34
2023/08/21 03:23:21;;;;;;;52.97;5.80;;;;;;;26.53;65.98;99986.81;7310720;19;129684;-38
2023/08/21 03:25:47;;;;;;;55.40;5.50;;;;;;;26.52;66.31;99991.28;7311026;19;130229;-38
2023/08/21 03:28:12;;;;;;;89.03;7.17;;;;;;;26.52;66.52;99986.03;7310669;19;129098;-38
2023/08/21 03:30:39;;;;;;;69.40;6.30;;;;;;;26.53;66.56;99990.28;7310088;19;129412;-37
2023/08/21 03:33:05;;;;;;;57.92;5.47;;;;;;;26.54;66.59;99991.13;7310430;19;129566;-38
2023/08/21 03:35:30;;;;;;;57.20;5.80;;;;;;;26.54;66.26;99994.56;7311055;19;130352;-38
2023/08/21 03:37:56;;;;;;;66.57;6.20;;;;;;;26.53;66.75;100002.66;7308637;19;129475;-42
2023/08/21 03:40:21;;;;;;;62.10;5.67;;;;;;;26.54;66.31;99994.56;7310367;19;128914;-39
2023/08/21 03:42:47;;;;;;;51.53;5.63;;;;;;;26.54;66.52;99989.28;7309772;19;129491;-37
2023/08/21 03:45:12;;;;;;;73.20;6.10;;;;;;;26.44;66.72;99972.81;7310952;19;130790;-40
2023/08/21 03:47:37;;;;;;;75.47;6.90;;;;;;;26.51;66.71;99989.63;7310273;19;129001;-39
2023/08/21 03:50:03;;;;;;;64.20;5.60;;;;;;;26.52;66.36;99991.28;7309789;19;129189;-40
2023/08/21 03:52:28;;;;;;;63.47;6.30;;;;;;;26.54;66.19;99985.84;7309660;19;129045;-38
2023/08/21 03:54:54;;;;;;;57.07;5.63;;;;;;;26.52;66.15;99985.19;7310900;19;129544;-39
2023/08/21 03:57:19;;;;;;;77.67;6.70;;;;;;;26.52;65.92;99993.94;7309286;19;129376;-37
2023/08/21 03:59:45;;;;;;;56.10;5.30;;;;;;;26.51;66.65;99994.91;7309776;19;130744;-37
2023/08/21 04:02:10;;;;;;;76.40;6.37;;;;;;;26.51;66.34;99994.09;7310726;19;129583;-35
2023/08/21 04:04:35;;;;;;;56.40;5.70;;;;;;;26.52;66.88;99996.56;7310298;19;130356;-37
2023/08/21 04:07:01;;;;;;;42.13;4.60;;;;;;;26.53;66.84;99998.22;7310158;19;129016;-37
2023/08/21 04:09:26;;;;;;;52.20;5.80;;;;;;;26.52;66.79;99996.56;7311021;19;129572;-39
2023/08/21 04:11:51;;;;;;;52.93;5.03;;;;;;;26.53;66.36;99992.94;7307696;19;129460;-38
2023/08/21 04:14:17;;;;;;;83.67;7.00;;;;;;;26.52;66.17;99993.09;7309373;19;130296;-39
2023/08/21 04:16:42;;;;;;;41.03;4.37;;;;;;;26.50;66.16;99993.25;7307831;19;129040;-38
2023/08/21 04:19:08;;;;;;;92.00;7.47;;;;;;;26.49;66.46;100002.16;7307689;19;129323;-41
2023/08/21 04:21:33;;;;;;;87.97;6.70;;;;;;;26.53;66.40;99998.22;7300119;19;129548;-36
2023/08/21 04:23:59;;;;;;;78.67;5.93;;;;;;;26.51;66.14;100005.44;7304471;19;129742;-36
2023/08/21 04:26:24;;;;;;;92.67;7.17;;;;;;;26.51;66.35;100008.09;7305532;19;129537;-37
2023/08/21 04:28:50;;;;;;;117.77;8.23;;;;;;;26.48;66.17;100005.78;7302313;19;129346;-38
2023/08/21 04:31:15;;;;;;;116.47;8.27;;;;;;;26.49;66.31;100002.16;7296711;19;129725;-38
2023/08/21 04:33:41;;;;;;;104.47;7.97;;;;;;;26.48;65.71;99999.66;7300458;19;130352;-36
2023/08/21 04:36:06;;;;;;;84.70;6.33;;;;;;;26.47;66.31;99996.22;7305059;19;129407;-38
2023/08/21 04:38:31;;;;;;;50.97;4.67;;;;;;;26.39;66.21;99985.66;7300937;19;129416;-38
2023/08/21 04:41:05;;;;;;;77.20;6.37;;;;;;;26.49;67.05;99996.91;7304147;19;129756;-38
2023/08/21 04:43:31;;;;;;;110.18;7.82;;;;;;;26.51;65.57;100000.16;7305705;19;130362;-37
2023/08/21 04:45:56;;;;;;;38.03;4.43;;;;;;;26.50;66.08;100009.09;7309271;19;129388;-37
2023/08/21 04:48:22;;;;;;;57.93;5.00;;;;;;;26.50;66.07;100003.81;7308142;19;130928;-39
2023/08/21 04:50:47;;;;;;;46.00;4.80;;;;;;;26.49;66.17;100003.97;7305404;19;130213;-37
2023/08/21 04:53:13;;;;;;;85.80;6.77;;;;;;;26.50;65.92;100003.81;7293911;19;129831;-38
2023/08/21 04:55:40;;;;;;;45.23;4.50;;;;;;;26.49;66.19;100002.16;7308550;19;129076;-39
2023/08/21 04:58:06;;;;;;;65.90;5.50;;;;;;;26.49;66.08;99996.06;7304584;19;129415;-37
2023/08/21 05:00:31;;;;;;;58.08;5.18;;;;;;;26.48;65.25;99997.88;7302792;19;130047;-38
2023/08/21 05:02:57;;;;;;;76.47;6.20;;;;;;;26.49;65.44;100004.81;7309110;19;130298;-36
2023/08/21 05:05:22;;;;;;;60.73;5.53;;;;;;;26.47;66.12;99998.88;7306312;19;131097;-36
2023/08/21 05:07:48;;;;;;;52.83;5.10;;;;;;;26.48;65.79;100002.31;7306615;19;129387;-37
2023/08/21 05:10:13;;;;;;;72.87;6.20;;;;;;;26.45;66.16;100006.09;7303665;19;130163;-37
2023/08/21 05:12:38;;;;;;;77.50;6.07;;;;;;;26.45;66.15;100003.47;7305453;19;130267;-36
2023/08/21 05:15:04;;;;;;;118.77;9.20;;;;;;;26.48;65.51;100007.56;7305473;19;129146;-36
2023/08/21 05:17:30;;;;;;;58.13;5.83;;;;;;;26.49;66.03;100011.88;7305446;19;129223;-36
2023/08/21 05:19:56;;;;;;;65.55;5.95;;;;;;;26.47;66.14;100016.47;7305967;19;129037;-36
2023/08/21 05:22:22;;;;;;;99.27;7.87;;;;;;;26.49;65.79;100014.53;7306644;19;130830;-36
2023/08/21 05:24:47;;;;;;;44.90;4.93;;;;;;;26.48;66.19;100021.59;7305224;19;129489;-37
2023/08/21 05:27:12;;;;;;;73.50;6.20;;;;;;;26.47;65.80;100030.50;7305979;19;129389;-37
2023/08/21 05:29:38;;;;;;;71.20;6.67;;;;;;;26.47;66.38;100029.66;7306121;19;129350;-38
2023/08/21 05:32:03;;;;;;;123.23;8.70;;;;;;;26.46;65.98;100028.84;7302708;19;129845;-37
2023/08/21 05:34:29;;;;;;;60.97;5.87;;;;;;;26.47;65.89;100030.50;7304832;19;128863;-38
2023/08/21 05:36:54;;;;;;;38.10;4.77;;;;;;;26.48;66.35;100026.88;7307941;19;129205;-39
2023/08/21 05:39:20;;;;;;;71.73;6.57;;;;;;;26.49;66.44;100031.19;7302309;19;129495;-38
2023/08/21 05:41:46;;;;;;;76.97;6.80;;;;;;;26.47;66.17;100024.41;7304240;19;130009;-40
2023/08/21 05:44:11;;;;;;;64.60;6.03;;;;;;;26.49;66.11;100027.69;7306613;19;129423;-37
2023/08/21 05:46:37;;;;;;;41.97;5.37;;;;;;;26.47;66.11;100022.59;7306446;19;129589;-39
2023/08/21 05:49:03;;;;;;;82.65;6.65;;;;;;;26.47;65.57;100027.88;7309947;19;131220;-37
2023/08/21 05:51:29;;;;;;;72.17;7.03;;;;;;;26.47;65.88;100025.22;7306196;19;130153;-37
2023/08/21 05:53:54;;;;;;;56.03;5.67;;;;;;;26.45;66.06;100031.63;7306364;19;129492;-39
2023/08/21 05:56:19;;;;;;;85.07;7.47;;;;;;;26.45;65.97;100026.38;7305813;19;128859;-36
2023/08/21 05:58:45;;;;;;;51.73;5.53;;;;;;;26.47;65.55;100024.41;7303833;19;130921;-38
2023/08/21 06:01:11;;;;;;;64.47;6.63;;;;;;;26.44;65.81;100025.56;7303987;19;129251;-39
2023/08/21 06:03:36;;;;;;;54.00;6.13;;;;;;;26.47;66.03;100025.22;7304388;19;129227;-37
2023/08/21 06:06:01;;;;;;;100.77;8.63;;;;;;;26.41;66.45;100015.31;7305754;19;130100;-36
2023/08/21 06:08:27;;;;;;;67.57;6.70;;;;;;;26.49;65.78;100022.44;7305652;19;129077;-36
2023/08/21 06:10:53;;;;;;;62.67;6.90;;;;;;;26.45;66.12;100029.84;7302252;19;131190;-37
2023/08/21 06:13:18;;;;;;;60.43;6.57;;;;;;;26.47;66.36;100035.78;7311410;19;129277;-38
2023/08/21 06:15:45;;;;;;;73.67;7.10;;;;;;;26.41;66.38;100015.31;7312478;19;129844;-44
2023/08/21 06:18:10;;;;;;;74.18;6.95;;;;;;;26.46;66.40;100025.41;7312933;19;130274;-37
2023/08/21 06:20:36;;;;;;;38.77;5.83;;;;;;;26.45;65.90;100027.19;7310800;19;129998;-38
2023/08/21 06:23:01;;;;;;;55.23;6.27;;;;;;;26.47;65.75;100038.41;7312625;19;129974;-39
2023/08/21 06:25:26;;;;;;;78.97;7.43;;;;;;;26.45;65.71;100027.19;7312539;19;128904;-37
2023/08/21 06:27:52;;;;;;;42.07;5.47;;;;;;;26.43;66.43;100037.06;7312357;19;130103;-37
2023/08/21 06:30:17;;;;;;;65.40;6.67;;;;;;;26.46;65.78;100034.09;7310102;19;129681;-38
2023/08/21 06:32:44;;;;;;;81.40;7.37;;;;;;;26.38;66.09;100022.72;7311635;19;129166;-36
2023/08/21 06:35:09;;;;;;;82.65;7.32;;;;;;;26.46;66.45;100028.84;7312792;19;129426;-39
2023/08/21 06:37:35;;;;;;;62.00;6.53;;;;;;;26.37;66.67;100014.00;7310590;19;129145;-37
2023/08/21 06:40:00;;;;;;;71.13;7.10;;;;;;;26.40;66.10;100016.31;7311387;19;129144;-40
2023/08/21 06:42:26;;;;;;;84.70;8.43;;;;;;;26.48;66.12;100032.16;7311775;19;129377;-39
2023/08/21 06:44:51;;;;;;;74.40;6.97;;;;;;;26.46;65.79;100028.84;7313279;19;129125;-38
2023/08/21 06:47:16;;;;;;;54.03;6.60;;;;;;;26.46;66.60;100028.03;7310551;19;129473;-39
2023/08/21 06:49:42;;;;;;;66.63;6.67;;;;;;;26.43;66.47;100023.88;7311598;19;130113;-39
2023/08/21 06:52:07;;;;;;;71.70;6.63;;;;;;;26.44;66.18;100030.00;7311918;19;129811;-36
2023/08/21 06:54:33;;;;;;;79.10;7.40;;;;;;;26.46;65.59;100039.38;7312366;19;128733;-36
2023/08/21 06:56:59;;;;;;;57.67;5.90;;;;;;;26.46;65.81;100039.38;7309814;19;130129;-39
2023/08/21 06:59:24;;;;;;;48.37;5.70;;;;;;;26.45;66.21;100045.66;7310508;19;131166;-40
2023/08/21 07:01:51;;;;;;;105.67;8.43;;;;;;;26.48;66.38;100037.41;7307314;19;129880;-36
2023/08/21 07:04:16;;;;;;;;;;;;;;;26.46;67.72;100044.66;7312276;19;129172;-37
2023/08/21 07:06:41;;;;;;;46.73;5.90;;;;;;;26.47;65.61;100045.50;7310492;19;129168;-37
2023/08/21 07:09:07;;;;;;;59.03;6.20;;;;;;;26.44;66.52;100044.00;7310585;19;129988;-39
2023/08/21 07:11:32;;;;;;;83.57;7.13;;;;;;;26.45;65.77;100045.66;7308804;19;129294;-38
2023/08/21 07:13:57;;;;;;;66.80;6.37;;;;;;;26.46;66.13;100043.84;7309042;19;128898;-36
2023/08/21 07:16:23;;;;;;;62.40;6.07;;;;;;;26.42;66.24;100048.63;7309395;19;129407;-37
2023/08/21 07:18:48;;;;;;;52.73;5.70;;;;;;;26.38;65.91;100038.53;7307523;19;129961;-37
2023/08/21 07:21:13;;;;;;;79.73;6.97;;;;;;;26.44;66.18;100049.28;7309091;19;129197;-39
2023/08/21 07:23:39;;;;;;;65.73;5.70;;;;;;;26.45;65.89;100058.84;7308698;19;128960;-39
2023/08/21 07:26:06;;;;;;;81.33;6.77;;;;;;;26.44;66.34;100051.09;7307532;19;131335;-38
2023/08/21 07:28:32;;;;;;;80.45;7.00;;;;;;;26.44;65.45;100046.66;7309327;19;130359;-39
2023/08/21 07:30:58;;;;;;;75.90;6.40;;;;;;;26.45;66.30;100056.19;7309701;19;129192;-40
2023/08/21 07:33:25;;;;;;;52.33;5.55;;;;;;;26.47;66.42;100062.16;7311201;19;129244;-39
2023/08/21 07:36:00;;;;;;;;;;;;;;;26.46;68.19;100060.47;7310204;19;130077;-40
2023/08/21 07:38:26;;;;;;;79.50;6.70;;;;;;;26.45;65.98;100058.84;7306236;19;131492;-39
2023/08/21 07:41:01;;;;;;;64.40;5.67;;;;;;;26.43;66.32;100060.81;7308382;19;129835;-37
2023/08/21 07:43:26;;;;;;;49.97;5.28;;;;;;;26.44;65.50;100062.47;7308839;19;128995;-38
2023/08/21 07:45:52;;;;;;;53.57;5.80;;;;;;;26.46;66.07;100065.75;7309489;19;129827;-40
2023/08/21 07:48:17;;;;;;;58.53;6.00;;;;;;;26.44;66.05;100059.84;7308896;19;130373;-37
2023/08/21 07:50:53;;;;;;;55.53;5.63;;;;;;;26.44;67.21;100059.00;7307378;19;129349;-38
2023/08/21 07:53:18;;;;;;;83.90;6.47;;;;;;;26.46;65.88;100055.19;7310303;19;129450;-39
2023/08/21 07:55:45;;;;;;;50.83;5.07;;;;;;;26.43;65.85;100052.91;7310509;19;130053;-38
2023/08/21 07:58:10;;;;;;;85.63;7.00;;;;;;;26.44;65.95;100061.63;7306146;19;131666;-39
2023/08/21 08:00:36;;;;;;;55.63;5.53;;;;;;;26.43;66.34;100058.16;7307586;19;129519;-37
2023/08/21 08:03:01;;;;;;;78.17;6.57;;;;;;;26.44;66.30;100053.72;7314030;19;129822;-39
2023/08/21 08:05:33;;;;;;;51.90;5.63;;;;;;;26.35;67.27;100042.31;7311888;19;129317;-36
2023/08/21 08:07:58;;;;;;;86.95;7.63;;;;;;;26.45;65.96;100053.56;7301844;19;130058;-35
2023/08/21 08:10:24;;;;;;;109.80;8.47;;;;;;;26.45;65.44;100058.00;7308309;19;129436;-34
2023/08/21 08:12:49;;;;;;;110.90;8.53;;;;;;;26.46;65.32;100060.47;7306255;19;129116;-36
2023/08/21 08:15:19;;;;;;;100.77;8.10;;;;;;;26.46;66.54;100065.75;7308842;19;129408;-36
2023/08/21 08:17:52;;;;;;;55.95;5.60;;;;;;;26.44;65.81;100059.84;7304171;19;129721;-36
2023/08/21 08:20:17;;;;;;;50.58;5.28;;;;;;;26.45;65.75;100065.91;7309325;19;129871;-36
2023/08/21 08:22:43;;;;;;;65.20;5.80;;;;;;;26.45;66.07;100065.91;7309669;19;129396;-36
2023/08/21 08:25:08;;;;;;;67.60;5.73;;;;;;;26.46;65.72;100065.75;7308599;19;130330;-39
2023/08/21 08:27:34;;;;;;;46.17;5.03;;;;;;;26.45;66.17;100058.84;7307870;19;130355;-38
2023/08/21 08:29:59;;;;;;;86.93;6.87;;;;;;;26.47;65.25;100070.06;7303494;19;129868;-35
2023/08/21 08:32:26;;;;;;;114.33;8.27;;;;;;;26.46;65.97;100071.03;7307763;19;129076;-39
2023/08/21 08:34:54;;;;;;;;;;;;;;;26.47;68.26;100071.88;7308854;19;129728;-39
2023/08/21 08:37:19;;;;;;;107.97;8.45;;;;;;;26.44;65.56;100078.28;7303893;19;131345;-36
2023/08/21 08:39:48;;;;;;;72.30;6.30;;;;;;;26.45;66.76;100079.94;7308654;19;129561;-36
2023/08/21 08:42:15;;;;;;;99.72;7.60;;;;;;;26.43;66.24;100076.63;7304367;19;129078;-33
2023/08/21 08:44:41;;;;;;;46.53;5.15;;;;;;;26.45;65.40;100072.03;7307198;19;129601;-38
2023/08/21 08:47:11;;;;;;;98.28;8.02;;;;;;;26.38;66.45;100052.53;7305092;19;129580;-36
2023/08/21 08:49:39;;;;;;;85.97;6.90;;;;;;;26.44;66.48;100065.13;7304629;19;129024;-39
2023/08/21 08:52:05;;;;;;;133.95;10.02;;;;;;;26.44;66.09;100070.38;7303095;19;129306;-38
2023/08/21 08:54:31;;;;;;;104.27;8.47;;;;;;;26.45;65.51;100069.38;7304390;19;130203;-37
2023/08/21 08:56:57;;;;;;;58.10;5.80;;;;;;;26.45;65.37;100071.19;7302690;19;129752;-38
2023/08/21 08:59:22;;;;;;;62.07;5.77;;;;;;;26.44;66.03;100066.91;7302324;19;129279;-40
2023/08/21 09:01:48;;;;;;;81.13;7.60;;;;;;;26.45;65.65;100068.56;7300960;19;129354;-38
2023/08/21 09:04:13;;;;;;;80.37;7.13;;;;;;;26.44;66.02;100072.19;7306584;19;129641;-40
2023/08/21 09:06:39;;;;;;;103.13;7.70;;;;;;;26.45;65.29;100068.56;7303696;19;130161;-37
2023/08/21 09:09:06;;;;;;;53.20;5.53;;;;;;;26.44;65.77;100080.94;7301195;19;129538;-36
2023/08/21 09:11:32;;;;;;;106.93;8.07;;;;;;;26.43;65.74;100079.25;7302741;19;129556;-38
2023/08/21 09:13:58;;;;;;;92.10;7.20;;;;;;;26.41;65.68;100067.25;7304019;19;130183;-40
2023/08/21 09:16:25;;;;;;;79.03;6.57;;;;;;;26.45;65.59;100081.72;7306007;19;131091;-40
2023/08/21 09:18:51;;;;;;;;;;;;;;;26.46;67.73;100076.31;7299259;19;129416;-38
2023/08/21 09:21:21;;;;;;;106.85;7.88;;;;;;;26.44;66.63;100075.66;7301460;19;129018;-37
2023/08/21 09:23:47;;;;;;;61.85;6.00;;;;;;;26.44;65.26;100073.03;7299149;19;131119;-39
2023/08/21 09:26:22;;;;;;;74.03;6.68;;;;;;;26.44;67.35;100072.19;7305490;19;130370;-37
2023/08/21 09:28:49;;;;;;;97.65;7.63;;;;;;;26.42;66.36;100072.34;7301529;19;129421;-39
2023/08/21 09:31:15;;;;;;;98.82;7.30;;;;;;;26.41;65.69;100068.03;7302566;19;129922;-38
2023/08/21 09:33:41;;;;;;;97.53;7.50;;;;;;;26.43;65.51;100076.63;7301100;19;130557;-37
2023/08/21 09:36:06;;;;;;;58.80;5.77;;;;;;;26.42;65.94;100074.97;7305538;19;129838;-38
2023/08/21 09:38:35;;;;;;;69.50;6.30;;;;;;;26.41;66.61;100083.06;7302438;19;129523;-39
2023/08/21 09:41:00;;;;;;;74.10;6.15;;;;;;;26.43;65.30;100071.34;7303725;19;129583;-39
2023/08/21 09:43:26;;;;;;;90.63;7.30;;;;;;;26.44;65.49;100067.75;7303175;19;129244;-37
2023/08/21 09:45:55;;;;;;;59.50;5.77;;;;;;;26.45;66.03;100074.66;7303790;19;129458;-37
2023/08/21 09:48:28;;;;;;;62.70;5.40;;;;;;;26.43;66.81;100076.63;7311421;19;129278;-39
2023/08/21 09:50:54;;;;;;;48.75;5.35;;;;;;;26.45;65.13;100064.13;7311146;19;129094;-37
2023/08/21 09:53:22;;;;;;;109.10;8.20;;;;;;;26.36;66.16;100054.50;7306071;19;131062;-37
2023/08/21 09:55:53;;;;;;;63.28;5.57;;;;;;;26.43;66.18;100062.59;7311472;19;130717;-38
2023/08/21 09:58:19;;;;;;;71.32;6.15;;;;;;;26.42;65.40;100059.16;7307322;19;129453;-35
2023/08/21 10:00:48;;;;;;;56.08;5.43;;;;;;;26.44;65.20;100059.00;7310321;19;129431;-38
2023/08/21 10:03:17;;;;;;;75.75;6.35;;;;;;;26.42;65.61;100053.06;7310197;19;129433;-40
2023/08/21 10:05:43;;;;;;;76.97;6.10;;;;;;;26.44;65.27;100051.09;7309973;19;129371;-39
2023/08/21 10:08:09;;;;;;;65.83;5.90;;;;;;;26.43;65.75;100052.91;7310839;19;129722;-38
2023/08/21 10:10:37;;;;;;;74.60;6.40;;;;;;;26.44;66.10;100059.84;7308891;19;129208;-37
2023/08/21 10:13:04;;;;;;;73.18;6.45;;;;;;;26.42;65.62;100053.88;7308787;19;131234;-38
2023/08/21 10:15:32;;;;;;;68.15;6.05;;;;;;;26.42;65.71;100055.69;7308160;19;129605;-37
2023/08/21 10:17:58;;;;;;;62.90;5.65;;;;;;;26.43;65.39;100062.59;7310756;19;129620;-37
2023/08/21 10:20:25;;;;;;;65.63;5.53;;;;;;;26.43;65.50;100052.91;7309899;19;129195;-39
2023/08/21 10:23:01;;;;;;;51.17;4.93;;;;;;;26.45;66.31;100063.28;7310281;19;129546;-37
2023/08/21 10:25:26;;;;;;;87.28;6.60;;;;;;;26.43;65.29;100063.44;7310011;19;130663;-37
2023/08/21 10:27:54;;;;;;;58.30;5.47;;;;;;;26.43;65.63;100057.34;7312306;19;129648;-39
2023/08/21 10:30:22;;;;;;;65.50;5.28;;;;;;;26.41;65.91;100054.06;7308761;19;129641;-37
2023/08/21 10:32:49;;;;;;;74.60;6.05;;;;;;;26.42;65.86;100053.06;7306120;19;130048;-38
2023/08/21 10:35:18;;;;;;;119.60;8.23;;;;;;;26.41;65.93;100057.50;7307201;19;129642;-34
2023/08/21 10:38:16;;;;;;;72.93;6.00;;;;;;;26.35;67.43;100044.97;7305600;19;129371;-38
2023/08/21 10:41:04;;;;;;;112.50;7.85;;;;;;;26.41;67.69;100049.59;7305578;19;129040;-40
2023/08/21 10:43:46;;;;;;;67.55;5.57;;;;;;;26.43;67.92;100050.25;7308079;19;130223;-39
2023/08/21 10:46:12;;;;;;;84.65;6.47;;;;;;;26.43;64.66;100049.41;7309830;19;129245;-36
2023/08/21 10:48:38;;;;;;;;;;;;;;;26.45;67.53;100053.56;7311028;19;130134;-37
2023/08/21 10:51:07;;;;;;;65.43;5.55;;;;;;;26.44;65.16;100044.00;7308073;19;129538;-36
2023/08/21 10:53:33;;;;;;;86.45;6.63;;;;;;;26.42;65.23;100045.16;7308192;19;131863;-39
2023/08/21 10:56:05;;;;;;;61.13;5.73;;;;;;;26.40;66.63;100042.66;7309992;19;129132;-38
2023/08/21 10:58:43;;;;;;;83.60;6.72;;;;;;;26.42;66.73;100039.88;7304448;19;129560;-39
2023/08/21 11:01:09;;;;;;;63.40;5.30;;;;;;;26.41;65.28;100044.31;7308897;19;129882;-37
2023/08/21 11:03:37;;;;;;;56.10;5.07;;;;;;;26.43;65.35;100042.34;7307163;19;131499;-37
2023/08/21 11:06:04;;;;;;;106.18;7.63;;;;;;;26.43;64.60;100041.50;7308381;19;129704;-43
2023/08/21 11:08:32;;;;;;;53.28;5.13;;;;;;;26.42;65.29;100040.72;7309531;19;128959;-36
2023/08/21 11:10:57;;;;;;;73.95;6.15;;;;;;;26.42;65.39;100038.06;7307208;19;130226;-37